sensor_id;sensor_type;location;lat;lon;timestamp;P1;durP1;ratioP1;P2;durP2;ratioP2
39448;SDS011;25151;45.566;9.382;2022-08-21T00:02:44;2.45;;;1.10;;
39448;SDS011;25151;45.566;9.382;2022-08-21T00:05:51;2.70;;;1.25;;
39448;SDS011;25151;45.566;9.382;2022-08-21T00:08:52;2.60;;;1.35;;
39448;SDS011;25151;45.566;9.382;2022-08-21T00:11:52;4.85;;;1.98;;
39448;SDS011;25151;45.566;9.382;2022-08-21T00:14:53;2.60;;;1.00;;
39448;SDS011;25151;45.566;9.382;2022-08-21T00:17:54;2.55;;;1.10;;
39448;SDS011;25151;45.566;9.382;2022-08-21T00:20:55;2.25;;;1.38;;
39448;SDS011;25151;45.566;9.382;2022-08-21T00:23:56;4.97;;;1.08;;
39448;SDS011;25151;45.566;9.382;2022-08-21T00:26:56;3.13;;;1.20;;
39448;SDS011;25151;45.566;9.382;2022-08-21T00:29:57;4.40;;;1.50;;
39448;SDS011;25151;45.566;9.382;2022-08-21T00:32:58;2.10;;;1.25;;
39448;SDS011;25151;45.566;9.382;2022-08-21T00:35:59;4.55;;;1.27;;
39448;SDS011;25151;45.566;9.382;2022-08-21T00:39:00;4.22;;;1.60;;
39448;SDS011;25151;45.566;9.382;2022-08-21T00:42:02;2.78;;;1.02;;
39448;SDS011;25151;45.566;9.382;2022-08-21T00:45:03;2.35;;;1.17;;
39448;SDS011;25151;45.566;9.382;2022-08-21T00:48:05;3.90;;;1.27;;
39448;SDS011;25151;45.566;9.382;2022-08-21T00:51:14;3.08;;;1.42;;
39448;SDS011;25151;45.566;9.382;2022-08-21T00:54:24;4.65;;;1.60;;
39448;SDS011;25151;45.566;9.382;2022-08-21T00:57:37;3.03;;;0.95;;
39448;SDS011;25151;45.566;9.382;2022-08-21T01:00:41;1.83;;;0.80;;
39448;SDS011;25151;45.566;9.382;2022-08-21T01:03:45;4.57;;;1.40;;
39448;SDS011;25151;45.566;9.382;2022-08-21T01:06:46;4.35;;;1.33;;
39448;SDS011;25151;45.566;9.382;2022-08-21T01:09:47;3.33;;;1.52;;
39448;SDS011;25151;45.566;9.382;2022-08-21T01:12:49;4.15;;;1.10;;
39448;SDS011;25151;45.566;9.382;2022-08-21T01:15:52;3.95;;;1.35;;
39448;SDS011;25151;45.566;9.382;2022-08-21T01:18:55;2.47;;;1.27;;
39448;SDS011;25151;45.566;9.382;2022-08-21T01:21:56;2.28;;;1.13;;
39448;SDS011;25151;45.566;9.382;2022-08-21T01:24:57;1.95;;;0.93;;
39448;SDS011;25151;45.566;9.382;2022-08-21T01:27:57;2.90;;;1.15;;
39448;SDS011;25151;45.566;9.382;2022-08-21T01:31:02;2.13;;;0.70;;
39448;SDS011;25151;45.566;9.382;2022-08-21T01:34:05;2.22;;;1.20;;
39448;SDS011;25151;45.566;9.382;2022-08-21T01:37:05;1.88;;;1.17;;
39448;SDS011;25151;45.566;9.382;2022-08-21T01:40:07;2.75;;;0.90;;
39448;SDS011;25151;45.566;9.382;2022-08-21T01:43:08;2.70;;;1.10;;
39448;SDS011;25151;45.566;9.382;2022-08-21T01:46:09;4.82;;;1.95;;
39448;SDS011;25151;45.566;9.382;2022-08-21T01:49:10;1.80;;;1.08;;
39448;SDS011;25151;45.566;9.382;2022-08-21T01:52:11;3.42;;;1.20;;
39448;SDS011;25151;45.566;9.382;2022-08-21T01:55:12;2.58;;;1.20;;
39448;SDS011;25151;45.566;9.382;2022-08-21T01:58:15;2.58;;;0.93;;
39448;SDS011;25151;45.566;9.382;2022-08-21T02:01:17;2.20;;;0.90;;
39448;SDS011;25151;45.566;9.382;2022-08-21T02:04:17;3.25;;;1.60;;
39448;SDS011;25151;45.566;9.382;2022-08-21T02:07:18;3.22;;;1.10;;
39448;SDS011;25151;45.566;9.382;2022-08-21T02:10:21;2.85;;;1.00;;
39448;SDS011;25151;45.566;9.382;2022-08-21T02:13:23;2.78;;;0.90;;
39448;SDS011;25151;45.566;9.382;2022-08-21T02:16:24;2.15;;;1.13;;
39448;SDS011;25151;45.566;9.382;2022-08-21T02:19:25;1.60;;;0.90;;
39448;SDS011;25151;45.566;9.382;2022-08-21T02:22:25;2.22;;;1.10;;
39448;SDS011;25151;45.566;9.382;2022-08-21T02:25:26;2.53;;;1.10;;
39448;SDS011;25151;45.566;9.382;2022-08-21T02:28:28;2.00;;;1.05;;
39448;SDS011;25151;45.566;9.382;2022-08-21T02:31:28;2.78;;;1.30;;
39448;SDS011;25151;45.566;9.382;2022-08-21T02:34:29;1.15;;;0.70;;
39448;SDS011;25151;45.566;9.382;2022-08-21T02:37:29;6.45;;;1.38;;
39448;SDS011;25151;45.566;9.382;2022-08-21T02:40:32;2.88;;;0.70;;
39448;SDS011;25151;45.566;9.382;2022-08-21T02:43:35;1.27;;;0.60;;
39448;SDS011;25151;45.566;9.382;2022-08-21T02:46:36;1.17;;;0.70;;
39448;SDS011;25151;45.566;9.382;2022-08-21T02:49:36;1.80;;;0.90;;
39448;SDS011;25151;45.566;9.382;2022-08-21T02:52:37;1.40;;;0.60;;
39448;SDS011;25151;45.566;9.382;2022-08-21T02:55:37;1.20;;;0.57;;
39448;SDS011;25151;45.566;9.382;2022-08-21T02:58:40;1.42;;;0.50;;
39448;SDS011;25151;45.566;9.382;2022-08-21T03:01:43;1.15;;;0.70;;
39448;SDS011;25151;45.566;9.382;2022-08-21T03:04:44;3.25;;;0.40;;
39448;SDS011;25151;45.566;9.382;2022-08-21T03:07:45;1.13;;;0.55;;
39448;SDS011;25151;45.566;9.382;2022-08-21T03:10:48;1.35;;;0.40;;
39448;SDS011;25151;45.566;9.382;2022-08-21T03:13:50;1.75;;;0.32;;
39448;SDS011;25151;45.566;9.382;2022-08-21T03:16:51;0.60;;;0.40;;
39448;SDS011;25151;45.566;9.382;2022-08-21T03:19:51;0.50;;;0.32;;
39448;SDS011;25151;45.566;9.382;2022-08-21T03:22:52;3.55;;;0.40;;
39448;SDS011;25151;45.566;9.382;2022-08-21T03:25:56;0.70;;;0.70;;
39448;SDS011;25151;45.566;9.382;2022-08-21T03:28:57;0.57;;;0.40;;
39448;SDS011;25151;45.566;9.382;2022-08-21T03:32:00;0.85;;;0.32;;
39448;SDS011;25151;45.566;9.382;2022-08-21T03:35:00;2.20;;;0.50;;
39448;SDS011;25151;45.566;9.382;2022-08-21T03:38:01;1.85;;;0.52;;
39448;SDS011;25151;45.566;9.382;2022-08-21T03:41:02;1.77;;;0.80;;
39448;SDS011;25151;45.566;9.382;2022-08-21T03:44:04;1.73;;;0.75;;
39448;SDS011;25151;45.566;9.382;2022-08-21T03:47:04;1.25;;;0.80;;
39448;SDS011;25151;45.566;9.382;2022-08-21T03:50:05;1.95;;;0.90;;
39448;SDS011;25151;45.566;9.382;2022-08-21T03:53:06;1.80;;;1.00;;
39448;SDS011;25151;45.566;9.382;2022-08-21T03:56:11;1.05;;;0.65;;
39448;SDS011;25151;45.566;9.382;2022-08-21T03:59:12;2.85;;;1.10;;
39448;SDS011;25151;45.566;9.382;2022-08-21T04:02:21;1.48;;;0.80;;
39448;SDS011;25151;45.566;9.382;2022-08-21T04:05:22;0.88;;;0.75;;
39448;SDS011;25151;45.566;9.382;2022-08-21T04:08:29;2.30;;;0.73;;
39448;SDS011;25151;45.566;9.382;2022-08-21T04:11:30;1.98;;;0.88;;
39448;SDS011;25151;45.566;9.382;2022-08-21T04:14:31;1.75;;;0.90;;
39448;SDS011;25151;45.566;9.382;2022-08-21T04:17:32;4.35;;;0.93;;
39448;SDS011;25151;45.566;9.382;2022-08-21T04:20:33;1.08;;;0.80;;
39448;SDS011;25151;45.566;9.382;2022-08-21T04:23:34;2.45;;;0.80;;
39448;SDS011;25151;45.566;9.382;2022-08-21T04:26:35;1.92;;;0.82;;
39448;SDS011;25151;45.566;9.382;2022-08-21T04:29:37;3.90;;;0.82;;
39448;SDS011;25151;45.566;9.382;2022-08-21T04:32:38;2.22;;;1.02;;
39448;SDS011;25151;45.566;9.382;2022-08-21T04:35:43;3.38;;;0.90;;
39448;SDS011;25151;45.566;9.382;2022-08-21T04:38:44;1.50;;;1.05;;
39448;SDS011;25151;45.566;9.382;2022-08-21T04:41:45;2.70;;;1.10;;
39448;SDS011;25151;45.566;9.382;2022-08-21T04:44:47;3.67;;;1.02;;
39448;SDS011;25151;45.566;9.382;2022-08-21T04:47:49;1.52;;;1.10;;
39448;SDS011;25151;45.566;9.382;2022-08-21T04:50:54;2.45;;;1.00;;
39448;SDS011;25151;45.566;9.382;2022-08-21T04:53:59;2.67;;;1.00;;
39448;SDS011;25151;45.566;9.382;2022-08-21T04:57:07;3.40;;;0.95;;
39448;SDS011;25151;45.566;9.382;2022-08-21T05:00:11;3.30;;;1.02;;
39448;SDS011;25151;45.566;9.382;2022-08-21T05:03:13;3.63;;;1.00;;
39448;SDS011;25151;45.566;9.382;2022-08-21T05:06:16;4.03;;;1.10;;
39448;SDS011;25151;45.566;9.382;2022-08-21T05:09:20;2.72;;;1.50;;
39448;SDS011;25151;45.566;9.382;2022-08-21T05:12:22;3.25;;;0.90;;
39448;SDS011;25151;45.566;9.382;2022-08-21T05:28:27;2.75;;;0.80;;
39448;SDS011;25151;45.566;9.382;2022-08-21T05:31:28;1.30;;;0.88;;
39448;SDS011;25151;45.566;9.382;2022-08-21T05:34:31;3.97;;;0.77;;
39448;SDS011;25151;45.566;9.382;2022-08-21T05:37:32;2.97;;;0.80;;
39448;SDS011;25151;45.566;9.382;2022-08-21T05:40:33;2.95;;;0.90;;
39448;SDS011;25151;45.566;9.382;2022-08-21T05:43:33;4.47;;;1.25;;
39448;SDS011;25151;45.566;9.382;2022-08-21T05:46:36;4.25;;;0.88;;
39448;SDS011;25151;45.566;9.382;2022-08-21T05:49:37;1.52;;;0.65;;
39448;SDS011;25151;45.566;9.382;2022-08-21T05:52:37;1.30;;;0.93;;
39448;SDS011;25151;45.566;9.382;2022-08-21T05:55:38;1.50;;;0.77;;
39448;SDS011;25151;45.566;9.382;2022-08-21T05:58:39;1.77;;;0.90;;
39448;SDS011;25151;45.566;9.382;2022-08-21T06:01:40;1.58;;;0.73;;
39448;SDS011;25151;45.566;9.382;2022-08-21T06:04:41;1.65;;;0.90;;
39448;SDS011;25151;45.566;9.382;2022-08-21T06:07:41;1.33;;;0.90;;
39448;SDS011;25151;45.566;9.382;2022-08-21T06:10:42;2.55;;;1.38;;
39448;SDS011;25151;45.566;9.382;2022-08-21T06:13:43;1.23;;;0.90;;
39448;SDS011;25151;45.566;9.382;2022-08-21T06:16:44;1.98;;;1.10;;
39448;SDS011;25151;45.566;9.382;2022-08-21T06:19:50;1.60;;;0.80;;
39448;SDS011;25151;45.566;9.382;2022-08-21T06:22:54;5.03;;;1.00;;
39448;SDS011;25151;45.566;9.382;2022-08-21T06:25:54;9.15;;;1.05;;
39448;SDS011;25151;45.566;9.382;2022-08-21T06:28:55;5.32;;;1.15;;
39448;SDS011;25151;45.566;9.382;2022-08-21T06:31:55;7.10;;;1.02;;
39448;SDS011;25151;45.566;9.382;2022-08-21T06:34:56;2.13;;;0.90;;
39448;SDS011;25151;45.566;9.382;2022-08-21T06:37:57;3.25;;;0.90;;
39448;SDS011;25151;45.566;9.382;2022-08-21T06:40:58;0.73;;;0.70;;
39448;SDS011;25151;45.566;9.382;2022-08-21T06:43:58;1.48;;;0.93;;
39448;SDS011;25151;45.566;9.382;2022-08-21T06:46:59;2.92;;;1.15;;
39448;SDS011;25151;45.566;9.382;2022-08-21T06:50:00;4.78;;;0.70;;
39448;SDS011;25151;45.566;9.382;2022-08-21T06:53:05;1.73;;;1.00;;
39448;SDS011;25151;45.566;9.382;2022-08-21T06:56:08;3.42;;;0.85;;
39448;SDS011;25151;45.566;9.382;2022-08-21T06:59:08;6.75;;;1.08;;
39448;SDS011;25151;45.566;9.382;2022-08-21T07:02:10;4.38;;;0.98;;
39448;SDS011;25151;45.566;9.382;2022-08-21T07:05:11;3.40;;;0.82;;
39448;SDS011;25151;45.566;9.382;2022-08-21T07:08:11;5.43;;;0.93;;
39448;SDS011;25151;45.566;9.382;2022-08-21T07:11:17;2.40;;;0.90;;
39448;SDS011;25151;45.566;9.382;2022-08-21T07:14:20;2.35;;;0.85;;
39448;SDS011;25151;45.566;9.382;2022-08-21T07:17:20;1.27;;;0.82;;
39448;SDS011;25151;45.566;9.382;2022-08-21T07:20:21;2.17;;;0.90;;
39448;SDS011;25151;45.566;9.382;2022-08-21T07:23:23;3.30;;;1.10;;
39448;SDS011;25151;45.566;9.382;2022-08-21T07:26:27;2.30;;;0.90;;
39448;SDS011;25151;45.566;9.382;2022-08-21T07:29:27;2.65;;;0.70;;
39448;SDS011;25151;45.566;9.382;2022-08-21T07:32:28;0.90;;;0.75;;
39448;SDS011;25151;45.566;9.382;2022-08-21T07:35:29;1.63;;;1.08;;
39448;SDS011;25151;45.566;9.382;2022-08-21T07:38:31;4.63;;;1.00;;
39448;SDS011;25151;45.566;9.382;2022-08-21T07:41:32;3.72;;;0.95;;
39448;SDS011;25151;45.566;9.382;2022-08-21T07:44:34;3.67;;;1.08;;
39448;SDS011;25151;45.566;9.382;2022-08-21T07:47:35;3.28;;;0.90;;
39448;SDS011;25151;45.566;9.382;2022-08-21T07:50:36;2.72;;;1.23;;
39448;SDS011;25151;45.566;9.382;2022-08-21T07:53:37;2.67;;;1.23;;
39448;SDS011;25151;45.566;9.382;2022-08-21T07:56:38;6.32;;;1.98;;
39448;SDS011;25151;45.566;9.382;2022-08-21T07:59:38;10.40;;;1.65;;
39448;SDS011;25151;45.566;9.382;2022-08-21T08:02:39;10.82;;;2.15;;
39448;SDS011;25151;45.566;9.382;2022-08-21T08:05:40;16.00;;;3.33;;
39448;SDS011;25151;45.566;9.382;2022-08-21T08:08:41;16.92;;;2.75;;
39448;SDS011;25151;45.566;9.382;2022-08-21T08:11:42;19.10;;;4.05;;
39448;SDS011;25151;45.566;9.382;2022-08-21T08:14:43;19.73;;;5.03;;
39448;SDS011;25151;45.566;9.382;2022-08-21T08:17:44;23.55;;;4.78;;
39448;SDS011;25151;45.566;9.382;2022-08-21T08:20:45;23.33;;;5.78;;
39448;SDS011;25151;45.566;9.382;2022-08-21T08:23:45;19.70;;;5.25;;
39448;SDS011;25151;45.566;9.382;2022-08-21T08:26:46;14.82;;;5.10;;
39448;SDS011;25151;45.566;9.382;2022-08-21T08:29:48;14.55;;;5.10;;
39448;SDS011;25151;45.566;9.382;2022-08-21T08:32:49;19.55;;;5.88;;
39448;SDS011;25151;45.566;9.382;2022-08-21T08:35:50;23.10;;;4.80;;
39448;SDS011;25151;45.566;9.382;2022-08-21T08:38:51;17.50;;;4.50;;
39448;SDS011;25151;45.566;9.382;2022-08-21T08:42:26;25.30;;;5.45;;
39448;SDS011;25151;45.566;9.382;2022-08-21T08:45:26;12.00;;;4.13;;
39448;SDS011;25151;45.566;9.382;2022-08-21T08:48:40;13.70;;;4.00;;
39448;SDS011;25151;45.566;9.382;2022-08-21T08:52:07;16.60;;;4.32;;
39448;SDS011;25151;45.566;9.382;2022-08-21T08:55:37;16.15;;;4.55;;
39448;SDS011;25151;45.566;9.382;2022-08-21T08:58:39;12.27;;;4.05;;
39448;SDS011;25151;45.566;9.382;2022-08-21T09:01:42;15.48;;;3.63;;
39448;SDS011;25151;45.566;9.382;2022-08-21T09:04:45;15.52;;;5.28;;
39448;SDS011;25151;45.566;9.382;2022-08-21T09:11:33;16.95;;;4.38;;
39448;SDS011;25151;45.566;9.382;2022-08-21T09:28:02;13.50;;;5.10;;
39448;SDS011;25151;45.566;9.382;2022-08-21T09:31:05;13.60;;;4.60;;
39448;SDS011;25151;45.566;9.382;2022-08-21T09:34:25;16.23;;;4.78;;
39448;SDS011;25151;45.566;9.382;2022-08-21T09:37:28;16.67;;;4.57;;
39448;SDS011;25151;45.566;9.382;2022-08-21T09:40:33;12.70;;;4.68;;
39448;SDS011;25151;45.566;9.382;2022-08-21T09:43:39;13.45;;;4.95;;
39448;SDS011;25151;45.566;9.382;2022-08-21T09:46:49;16.38;;;4.65;;
39448;SDS011;25151;45.566;9.382;2022-08-21T09:49:51;14.75;;;4.60;;
39448;SDS011;25151;45.566;9.382;2022-08-21T09:52:53;10.32;;;3.78;;
39448;SDS011;25151;45.566;9.382;2022-08-21T09:56:02;12.65;;;4.35;;
39448;SDS011;25151;45.566;9.382;2022-08-21T10:02:32;13.75;;;4.00;;
39448;SDS011;25151;45.566;9.382;2022-08-21T10:05:34;11.50;;;3.75;;
39448;SDS011;25151;45.566;9.382;2022-08-21T10:08:35;10.50;;;3.45;;
39448;SDS011;25151;45.566;9.382;2022-08-21T10:11:38;15.38;;;4.30;;
39448;SDS011;25151;45.566;9.382;2022-08-21T10:18:04;16.97;;;4.60;;
39448;SDS011;25151;45.566;9.382;2022-08-21T10:24:22;13.57;;;4.85;;
39448;SDS011;25151;45.566;9.382;2022-08-21T10:30:46;13.50;;;4.22;;
39448;SDS011;25151;45.566;9.382;2022-08-21T10:34:14;12.18;;;4.07;;
39448;SDS011;25151;45.566;9.382;2022-08-21T10:40:56;12.75;;;4.47;;
39448;SDS011;25151;45.566;9.382;2022-08-21T10:47:43;14.95;;;4.25;;
39448;SDS011;25151;45.566;9.382;2022-08-21T10:50:57;12.35;;;4.97;;
39448;SDS011;25151;45.566;9.382;2022-08-21T10:54:15;9.80;;;3.50;;
39448;SDS011;25151;45.566;9.382;2022-08-21T10:57:44;11.23;;;4.25;;
39448;SDS011;25151;45.566;9.382;2022-08-21T11:00:59;11.43;;;3.85;;
39448;SDS011;25151;45.566;9.382;2022-08-21T11:04:11;10.02;;;3.53;;
39448;SDS011;25151;45.566;9.382;2022-08-21T11:07:21;10.23;;;4.15;;
39448;SDS011;25151;45.566;9.382;2022-08-21T11:10:50;10.45;;;3.47;;
39448;SDS011;25151;45.566;9.382;2022-08-21T11:14:02;9.18;;;3.63;;
39448;SDS011;25151;45.566;9.382;2022-08-21T11:17:37;12.60;;;3.88;;
39448;SDS011;25151;45.566;9.382;2022-08-21T11:33:54;11.45;;;3.95;;
39448;SDS011;25151;45.566;9.382;2022-08-21T11:37:01;6.93;;;3.33;;
39448;SDS011;25151;45.566;9.382;2022-08-21T11:40:15;11.77;;;3.83;;
39448;SDS011;25151;45.566;9.382;2022-08-21T11:43:48;10.07;;;3.35;;
39448;SDS011;25151;45.566;9.382;2022-08-21T11:46:57;10.48;;;3.63;;
39448;SDS011;25151;45.566;9.382;2022-08-21T11:50:16;12.25;;;4.05;;
39448;SDS011;25151;45.566;9.382;2022-08-21T11:53:24;9.60;;;3.88;;
39448;SDS011;25151;45.566;9.382;2022-08-21T11:56:36;11.77;;;3.05;;
39448;SDS011;25151;45.566;9.382;2022-08-21T11:59:46;11.75;;;3.70;;
39448;SDS011;25151;45.566;9.382;2022-08-21T12:02:53;10.43;;;3.17;;
39448;SDS011;25151;45.566;9.382;2022-08-21T12:05:58;11.40;;;3.83;;
39448;SDS011;25151;45.566;9.382;2022-08-21T12:09:07;10.73;;;3.17;;
39448;SDS011;25151;45.566;9.382;2022-08-21T12:12:33;7.32;;;3.22;;
39448;SDS011;25151;45.566;9.382;2022-08-21T12:15:36;10.30;;;3.58;;
39448;SDS011;25151;45.566;9.382;2022-08-21T12:18:39;10.07;;;3.58;;
39448;SDS011;25151;45.566;9.382;2022-08-21T12:21:49;11.82;;;3.97;;
39448;SDS011;25151;45.566;9.382;2022-08-21T12:24:50;12.93;;;3.63;;
39448;SDS011;25151;45.566;9.382;2022-08-21T12:28:07;9.82;;;3.45;;
39448;SDS011;25151;45.566;9.382;2022-08-21T12:31:23;13.98;;;3.67;;
39448;SDS011;25151;45.566;9.382;2022-08-21T12:34:30;10.77;;;3.63;;
39448;SDS011;25151;45.566;9.382;2022-08-21T12:37:50;12.30;;;3.55;;
39448;SDS011;25151;45.566;9.382;2022-08-21T12:41:07;12.23;;;3.67;;
39448;SDS011;25151;45.566;9.382;2022-08-21T12:44:14;9.50;;;3.85;;
39448;SDS011;25151;45.566;9.382;2022-08-21T12:47:55;10.88;;;3.72;;
39448;SDS011;25151;45.566;9.382;2022-08-21T12:51:48;7.40;;;2.95;;
39448;SDS011;25151;45.566;9.382;2022-08-21T12:54:37;8.20;;;2.90;;
39448;SDS011;25151;45.566;9.382;2022-08-21T12:57:41;8.77;;;3.42;;
39448;SDS011;25151;45.566;9.382;2022-08-21T13:00:44;9.48;;;3.50;;
39448;SDS011;25151;45.566;9.382;2022-08-21T13:03:50;11.07;;;3.50;;
39448;SDS011;25151;45.566;9.382;2022-08-21T13:06:54;7.50;;;2.95;;
39448;SDS011;25151;45.566;9.382;2022-08-21T13:10:00;9.45;;;3.35;;
39448;SDS011;25151;45.566;9.382;2022-08-21T13:13:05;8.00;;;2.90;;
39448;SDS011;25151;45.566;9.382;2022-08-21T13:16:26;9.85;;;3.53;;
39448;SDS011;25151;45.566;9.382;2022-08-21T13:19:28;9.40;;;2.92;;
39448;SDS011;25151;45.566;9.382;2022-08-21T13:22:29;12.63;;;3.80;;
39448;SDS011;25151;45.566;9.382;2022-08-21T13:25:34;9.57;;;3.15;;
39448;SDS011;25151;45.566;9.382;2022-08-21T13:28:37;8.90;;;3.03;;
39448;SDS011;25151;45.566;9.382;2022-08-21T13:31:38;6.72;;;2.95;;
39448;SDS011;25151;45.566;9.382;2022-08-21T13:34:42;12.20;;;3.25;;
39448;SDS011;25151;45.566;9.382;2022-08-21T13:37:43;10.45;;;3.65;;
39448;SDS011;25151;45.566;9.382;2022-08-21T13:40:49;13.75;;;4.10;;
39448;SDS011;25151;45.566;9.382;2022-08-21T13:43:56;9.55;;;2.85;;
39448;SDS011;25151;45.566;9.382;2022-08-21T13:46:59;9.38;;;2.88;;
39448;SDS011;25151;45.566;9.382;2022-08-21T13:50:02;7.20;;;2.90;;
39448;SDS011;25151;45.566;9.382;2022-08-21T13:53:06;11.55;;;3.97;;
39448;SDS011;25151;45.566;9.382;2022-08-21T13:56:07;11.07;;;3.05;;
39448;SDS011;25151;45.566;9.382;2022-08-21T13:59:08;7.82;;;2.83;;
39448;SDS011;25151;45.566;9.382;2022-08-21T14:02:14;8.40;;;3.20;;
39448;SDS011;25151;45.566;9.382;2022-08-21T14:05:24;9.10;;;3.20;;
39448;SDS011;25151;45.566;9.382;2022-08-21T14:11:37;8.02;;;3.00;;
39448;SDS011;25151;45.566;9.382;2022-08-21T14:14:40;6.40;;;2.78;;
39448;SDS011;25151;45.566;9.382;2022-08-21T14:17:41;10.63;;;2.90;;
39448;SDS011;25151;45.566;9.382;2022-08-21T14:20:42;9.30;;;3.35;;
39448;SDS011;25151;45.566;9.382;2022-08-21T14:23:45;7.63;;;2.70;;
39448;SDS011;25151;45.566;9.382;2022-08-21T14:26:49;8.10;;;2.53;;
39448;SDS011;25151;45.566;9.382;2022-08-21T14:30:13;7.40;;;2.88;;
39448;SDS011;25151;45.566;9.382;2022-08-21T14:33:28;4.93;;;2.45;;
39448;SDS011;25151;45.566;9.382;2022-08-21T14:36:31;9.03;;;2.63;;
39448;SDS011;25151;45.566;9.382;2022-08-21T14:39:31;8.20;;;3.30;;
39448;SDS011;25151;45.566;9.382;2022-08-21T14:42:32;6.93;;;2.50;;
39448;SDS011;25151;45.566;9.382;2022-08-21T14:45:33;9.52;;;2.95;;
39448;SDS011;25151;45.566;9.382;2022-08-21T14:48:36;5.03;;;2.25;;
39448;SDS011;25151;45.566;9.382;2022-08-21T14:51:37;6.75;;;2.78;;
39448;SDS011;25151;45.566;9.382;2022-08-21T14:54:38;9.18;;;2.97;;
39448;SDS011;25151;45.566;9.382;2022-08-21T14:57:40;5.85;;;2.67;;
39448;SDS011;25151;45.566;9.382;2022-08-21T15:00:43;4.57;;;2.22;;
39448;SDS011;25151;45.566;9.382;2022-08-21T15:03:44;8.43;;;2.55;;
39448;SDS011;25151;45.566;9.382;2022-08-21T15:06:46;5.03;;;2.75;;
39448;SDS011;25151;45.566;9.382;2022-08-21T15:09:50;5.95;;;2.50;;
39448;SDS011;25151;45.566;9.382;2022-08-21T15:12:50;5.57;;;2.17;;
39448;SDS011;25151;45.566;9.382;2022-08-21T15:15:51;5.35;;;2.75;;
39448;SDS011;25151;45.566;9.382;2022-08-21T15:18:57;6.85;;;3.00;;
39448;SDS011;25151;45.566;9.382;2022-08-21T15:21:58;9.35;;;2.90;;
39448;SDS011;25151;45.566;9.382;2022-08-21T15:24:59;7.22;;;2.80;;
39448;SDS011;25151;45.566;9.382;2022-08-21T15:28:01;8.20;;;2.78;;
39448;SDS011;25151;45.566;9.382;2022-08-21T15:31:03;9.63;;;3.28;;
39448;SDS011;25151;45.566;9.382;2022-08-21T15:34:04;8.35;;;2.60;;
39448;SDS011;25151;45.566;9.382;2022-08-21T15:37:05;5.95;;;2.20;;
39448;SDS011;25151;45.566;9.382;2022-08-21T15:40:08;6.25;;;2.78;;
39448;SDS011;25151;45.566;9.382;2022-08-21T15:43:11;7.43;;;2.40;;
39448;SDS011;25151;45.566;9.382;2022-08-21T15:46:26;7.90;;;2.50;;
39448;SDS011;25151;45.566;9.382;2022-08-21T15:49:27;5.03;;;2.25;;
39448;SDS011;25151;45.566;9.382;2022-08-21T15:52:28;12.45;;;2.90;;
39448;SDS011;25151;45.566;9.382;2022-08-21T15:55:28;10.68;;;2.45;;
39448;SDS011;25151;45.566;9.382;2022-08-21T15:58:29;7.20;;;2.65;;
39448;SDS011;25151;45.566;9.382;2022-08-21T16:01:30;10.52;;;2.83;;
39448;SDS011;25151;45.566;9.382;2022-08-21T16:04:31;7.00;;;2.33;;
39448;SDS011;25151;45.566;9.382;2022-08-21T16:07:32;9.52;;;2.58;;
39448;SDS011;25151;45.566;9.382;2022-08-21T16:10:32;4.57;;;2.30;;
39448;SDS011;25151;45.566;9.382;2022-08-21T16:13:36;6.68;;;2.67;;
39448;SDS011;25151;45.566;9.382;2022-08-21T16:16:42;5.70;;;2.80;;
39448;SDS011;25151;45.566;9.382;2022-08-21T16:19:44;11.23;;;2.55;;
39448;SDS011;25151;45.566;9.382;2022-08-21T16:22:45;5.78;;;3.25;;
39448;SDS011;25151;45.566;9.382;2022-08-21T16:25:46;9.43;;;2.70;;
39448;SDS011;25151;45.566;9.382;2022-08-21T16:28:48;7.35;;;2.83;;
39448;SDS011;25151;45.566;9.382;2022-08-21T16:31:50;4.63;;;2.30;;
39448;SDS011;25151;45.566;9.382;2022-08-21T16:34:52;5.10;;;2.53;;
39448;SDS011;25151;45.566;9.382;2022-08-21T16:37:53;7.35;;;2.85;;
39448;SDS011;25151;45.566;9.382;2022-08-21T16:40:56;8.50;;;2.80;;
39448;SDS011;25151;45.566;9.382;2022-08-21T16:43:56;9.55;;;2.95;;
39448;SDS011;25151;45.566;9.382;2022-08-21T16:46:57;7.88;;;2.60;;
39448;SDS011;25151;45.566;9.382;2022-08-21T16:49:58;5.07;;;2.00;;
39448;SDS011;25151;45.566;9.382;2022-08-21T16:52:59;7.68;;;2.53;;
39448;SDS011;25151;45.566;9.382;2022-08-21T16:55:59;7.70;;;2.90;;
39448;SDS011;25151;45.566;9.382;2022-08-21T16:59:00;4.88;;;2.40;;
39448;SDS011;25151;45.566;9.382;2022-08-21T17:02:04;5.25;;;2.38;;
39448;SDS011;25151;45.566;9.382;2022-08-21T17:05:20;5.45;;;2.10;;
39448;SDS011;25151;45.566;9.382;2022-08-21T17:08:21;9.50;;;2.70;;
39448;SDS011;25151;45.566;9.382;2022-08-21T17:11:24;4.95;;;2.22;;
39448;SDS011;25151;45.566;9.382;2022-08-21T17:14:28;3.38;;;2.05;;
39448;SDS011;25151;45.566;9.382;2022-08-21T17:17:29;5.63;;;2.30;;
39448;SDS011;25151;45.566;9.382;2022-08-21T17:20:30;6.97;;;1.95;;
39448;SDS011;25151;45.566;9.382;2022-08-21T17:23:31;3.58;;;1.85;;
39448;SDS011;25151;45.566;9.382;2022-08-21T17:26:33;6.22;;;1.95;;
39448;SDS011;25151;45.566;9.382;2022-08-21T17:29:35;4.80;;;2.03;;
39448;SDS011;25151;45.566;9.382;2022-08-21T17:32:38;5.15;;;1.80;;
39448;SDS011;25151;45.566;9.382;2022-08-21T17:35:39;6.35;;;1.90;;
39448;SDS011;25151;45.566;9.382;2022-08-21T17:38:40;4.70;;;1.90;;
39448;SDS011;25151;45.566;9.382;2022-08-21T17:41:40;6.03;;;2.15;;
39448;SDS011;25151;45.566;9.382;2022-08-21T17:44:43;8.05;;;2.45;;
39448;SDS011;25151;45.566;9.382;2022-08-21T17:47:46;4.80;;;2.20;;
39448;SDS011;25151;45.566;9.382;2022-08-21T17:50:46;6.13;;;2.00;;
39448;SDS011;25151;45.566;9.382;2022-08-21T17:53:47;5.53;;;2.28;;
39448;SDS011;25151;45.566;9.382;2022-08-21T17:56:48;2.88;;;1.90;;
39448;SDS011;25151;45.566;9.382;2022-08-21T17:59:49;4.53;;;2.33;;
39448;SDS011;25151;45.566;9.382;2022-08-21T18:02:54;4.60;;;1.92;;
39448;SDS011;25151;45.566;9.382;2022-08-21T18:06:03;7.53;;;2.42;;
39448;SDS011;25151;45.566;9.382;2022-08-21T18:09:04;9.80;;;1.92;;
39448;SDS011;25151;45.566;9.382;2022-08-21T18:12:06;5.70;;;1.95;;
39448;SDS011;25151;45.566;9.382;2022-08-21T18:15:07;4.22;;;2.20;;
39448;SDS011;25151;45.566;9.382;2022-08-21T18:18:10;13.70;;;2.58;;
39448;SDS011;25151;45.566;9.382;2022-08-21T18:21:11;6.65;;;2.17;;
39448;SDS011;25151;45.566;9.382;2022-08-21T18:24:12;8.38;;;2.47;;
39448;SDS011;25151;45.566;9.382;2022-08-21T18:27:13;8.75;;;2.28;;
39448;SDS011;25151;45.566;9.382;2022-08-21T18:30:16;6.57;;;2.33;;
39448;SDS011;25151;45.566;9.382;2022-08-21T18:33:20;5.13;;;1.83;;
39448;SDS011;25151;45.566;9.382;2022-08-21T18:36:22;8.38;;;1.85;;
39448;SDS011;25151;45.566;9.382;2022-08-21T18:39:23;10.45;;;2.30;;
39448;SDS011;25151;45.566;9.382;2022-08-21T18:42:24;9.95;;;2.55;;
39448;SDS011;25151;45.566;9.382;2022-08-21T18:45:25;5.13;;;2.10;;
39448;SDS011;25151;45.566;9.382;2022-08-21T18:48:26;9.23;;;1.98;;
39448;SDS011;25151;45.566;9.382;2022-08-21T18:51:27;7.53;;;2.28;;
39448;SDS011;25151;45.566;9.382;2022-08-21T18:54:29;6.10;;;1.90;;
39448;SDS011;25151;45.566;9.382;2022-08-21T18:57:29;6.93;;;2.40;;
39448;SDS011;25151;45.566;9.382;2022-08-21T19:00:33;3.88;;;1.80;;
39448;SDS011;25151;45.566;9.382;2022-08-21T19:03:37;9.07;;;2.30;;
39448;SDS011;25151;45.566;9.382;2022-08-21T19:06:37;4.80;;;2.20;;
39448;SDS011;25151;45.566;9.382;2022-08-21T19:09:38;6.35;;;2.60;;
39448;SDS011;25151;45.566;9.382;2022-08-21T19:12:39;9.00;;;2.53;;
39448;SDS011;25151;45.566;9.382;2022-08-21T19:15:41;7.63;;;2.10;;
39448;SDS011;25151;45.566;9.382;2022-08-21T19:18:45;5.43;;;1.70;;
39448;SDS011;25151;45.566;9.382;2022-08-21T19:21:47;5.82;;;2.20;;
39448;SDS011;25151;45.566;9.382;2022-08-21T19:24:47;7.85;;;2.10;;
39448;SDS011;25151;45.566;9.382;2022-08-21T19:27:48;4.45;;;2.00;;
39448;SDS011;25151;45.566;9.382;2022-08-21T19:30:54;8.05;;;2.17;;
39448;SDS011;25151;45.566;9.382;2022-08-21T19:33:58;6.22;;;2.22;;